sensor_id;sensor_type;location;lat;lon;timestamp;pressure;altitude;pressure_sealevel;temperature;humidity
80627;BME280;69982;51.758;5.784;2023-05-07T00:00:25;101615.05;;;14.87;76.05
80627;BME280;69982;51.758;5.784;2023-05-07T00:03:13;101617.04;;;14.88;75.94
80627;BME280;69982;51.758;5.784;2023-05-07T00:05:41;101614.86;;;14.86;76.15
80627;BME280;69982;51.758;5.784;2023-05-07T00:08:09;101619.41;;;14.81;76.11
80627;BME280;69982;51.758;5.784;2023-05-07T00:10:37;101622.09;;;14.77;76.07
80627;BME280;69982;51.758;5.784;2023-05-07T00:13:05;101622.36;;;14.75;75.99
80627;BME280;69982;51.758;5.784;2023-05-07T00:15:33;101625.96;;;14.74;75.97
80627;BME280;69982;51.758;5.784;2023-05-07T00:18:00;101627.77;;;14.72;76.13
80627;BME280;69982;51.758;5.784;2023-05-07T00:20:28;101631.56;;;14.73;76.12
80627;BME280;69982;51.758;5.784;2023-05-07T00:22:56;101628.56;;;14.72;76.04
80627;BME280;69982;51.758;5.784;2023-05-07T00:25:24;101621.84;;;14.70;75.96
80627;BME280;69982;51.758;5.784;2023-05-07T00:27:52;101620.71;;;14.67;76.10
80627;BME280;69982;51.758;5.784;2023-05-07T00:30:19;101614.73;;;14.63;76.18
80627;BME280;69982;51.758;5.784;2023-05-07T00:32:47;101610.64;;;14.59;76.07
80627;BME280;69982;51.758;5.784;2023-05-07T00:35:17;101608.57;;;14.54;75.92
80627;BME280;69982;51.758;5.784;2023-05-07T00:37:45;101603.96;;;14.48;76.06
80627;BME280;69982;51.758;5.784;2023-05-07T00:40:12;101599.52;;;14.42;76.21
80627;BME280;69982;51.758;5.784;2023-05-07T00:42:40;101596.44;;;14.38;76.31
80627;BME280;69982;51.758;5.784;2023-05-07T00:45:09;101597.60;;;14.36;76.22
80627;BME280;69982;51.758;5.784;2023-05-07T00:47:38;101597.13;;;14.34;76.34
80627;BME280;69982;51.758;5.784;2023-05-07T00:50:08;101597.05;;;14.33;76.37
80627;BME280;69982;51.758;5.784;2023-05-07T00:52:37;101598.90;;;14.33;76.41
80627;BME280;69982;51.758;5.784;2023-05-07T00:55:06;101594.48;;;14.31;76.41
80627;BME280;69982;51.758;5.784;2023-05-07T00:57:39;101590.26;;;14.32;76.22
80627;BME280;69982;51.758;5.784;2023-05-07T01:00:08;101588.79;;;14.31;76.21
80627;BME280;69982;51.758;5.784;2023-05-07T01:02:40;101593.63;;;14.28;76.38
80627;BME280;69982;51.758;5.784;2023-05-07T01:05:13;101593.67;;;14.24;76.45
80627;BME280;69982;51.758;5.784;2023-05-07T01:07:42;101591.76;;;14.23;76.41
80627;BME280;69982;51.758;5.784;2023-05-07T01:10:10;101590.29;;;14.23;76.59
80627;BME280;69982;51.758;5.784;2023-05-07T01:12:38;101586.98;;;14.23;76.65
80627;BME280;69982;51.758;5.784;2023-05-07T01:15:08;101583.84;;;14.25;76.58
80627;BME280;69982;51.758;5.784;2023-05-07T01:17:39;101582.98;;;14.29;76.59
80627;BME280;69982;51.758;5.784;2023-05-07T01:20:08;101582.14;;;14.31;76.47
80627;BME280;69982;51.758;5.784;2023-05-07T01:22:38;101577.73;;;14.32;76.61
80627;BME280;69982;51.758;5.784;2023-05-07T01:25:07;101581.48;;;14.29;76.77
80627;BME280;69982;51.758;5.784;2023-05-07T01:27:35;101583.43;;;14.26;76.95
80627;BME280;69982;51.758;5.784;2023-05-07T01:30:05;101584.18;;;14.24;77.08
80627;BME280;69982;51.758;5.784;2023-05-07T01:35:11;101581.08;;;14.22;77.07
80627;BME280;69982;51.758;5.784;2023-05-07T01:37:39;101584.25;;;14.25;76.93
80627;BME280;69982;51.758;5.784;2023-05-07T01:40:08;101584.70;;;14.28;76.86
80627;BME280;69982;51.758;5.784;2023-05-07T01:42:37;101584.76;;;14.32;76.99
80627;BME280;69982;51.758;5.784;2023-05-07T01:45:05;101581.54;;;14.36;76.95
80627;BME280;69982;51.758;5.784;2023-05-07T01:47:33;101581.77;;;14.39;76.87
80627;BME280;69982;51.758;5.784;2023-05-07T01:50:01;101582.81;;;14.41;77.04
80627;BME280;69982;51.758;5.784;2023-05-07T01:52:29;101583.27;;;14.42;76.90
80627;BME280;69982;51.758;5.784;2023-05-07T01:54:57;101584.30;;;14.43;77.07
80627;BME280;69982;51.758;5.784;2023-05-07T01:57:24;101585.11;;;14.44;77.23
80627;BME280;69982;51.758;5.784;2023-05-07T01:59:52;101584.91;;;14.46;77.04
80627;BME280;69982;51.758;5.784;2023-05-07T02:02:20;101576.34;;;14.46;77.06
80627;BME280;69982;51.758;5.784;2023-05-07T02:04:47;101574.94;;;14.45;77.17
80627;BME280;69982;51.758;5.784;2023-05-07T02:07:16;101574.25;;;14.46;77.27
80627;BME280;69982;51.758;5.784;2023-05-07T02:09:43;101568.06;;;14.48;77.20
80627;BME280;69982;51.758;5.784;2023-05-07T02:12:11;101569.46;;;14.52;77.34
80627;BME280;69982;51.758;5.784;2023-05-07T02:14:38;101566.24;;;14.54;77.13
80627;BME280;69982;51.758;5.784;2023-05-07T02:17:07;101564.02;;;14.54;77.14
80627;BME280;69982;51.758;5.784;2023-05-07T02:19:34;101565.98;;;14.53;77.17
80627;BME280;69982;51.758;5.784;2023-05-07T02:22:02;101559.86;;;14.49;77.36
80627;BME280;69982;51.758;5.784;2023-05-07T02:24:30;101563.11;;;14.47;77.48
80627;BME280;69982;51.758;5.784;2023-05-07T02:26:58;101558.27;;;14.44;77.56
80627;BME280;69982;51.758;5.784;2023-05-07T02:29:25;101563.52;;;14.45;77.73
80627;BME280;69982;51.758;5.784;2023-05-07T02:31:53;101564.41;;;14.46;77.65
80627;BME280;69982;51.758;5.784;2023-05-07T02:34:21;101559.92;;;14.50;77.55
80627;BME280;69982;51.758;5.784;2023-05-07T02:36:48;101557.73;;;14.54;77.51
80627;BME280;69982;51.758;5.784;2023-05-07T02:39:17;101558.38;;;14.56;77.40
80627;BME280;69982;51.758;5.784;2023-05-07T02:41:44;101556.16;;;14.56;77.48
80627;BME280;69982;51.758;5.784;2023-05-07T02:44:12;101558.80;;;14.56;77.35
80627;BME280;69982;51.758;5.784;2023-05-07T02:46:40;101557.20;;;14.54;77.49
80627;BME280;69982;51.758;5.784;2023-05-07T02:49:07;101563.38;;;14.52;77.52
80627;BME280;69982;51.758;5.784;2023-05-07T02:51:35;101563.95;;;14.52;77.52
80627;BME280;69982;51.758;5.784;2023-05-07T02:54:03;101568.13;;;14.54;77.35
80627;BME280;69982;51.758;5.784;2023-05-07T02:56:30;101567.91;;;14.55;77.30
80627;BME280;69982;51.758;5.784;2023-05-07T02:58:58;101571.42;;;14.60;77.42
80627;BME280;69982;51.758;5.784;2023-05-07T03:01:26;101573.33;;;14.64;77.39
80627;BME280;69982;51.758;5.784;2023-05-07T03:03:54;101571.44;;;14.66;77.23
80627;BME280;69982;51.758;5.784;2023-05-07T03:06:21;101575.78;;;14.66;77.28
80627;BME280;69982;51.758;5.784;2023-05-07T03:08:49;101574.62;;;14.65;77.32
80627;BME280;69982;51.758;5.784;2023-05-07T03:11:18;101570.54;;;14.61;77.24
80627;BME280;69982;51.758;5.784;2023-05-07T03:13:45;101567.85;;;14.54;77.27
80627;BME280;69982;51.758;5.784;2023-05-07T03:16:14;101571.23;;;14.50;77.58
80627;BME280;69982;51.758;5.784;2023-05-07T03:18:41;101571.52;;;14.48;77.65
80627;BME280;69982;51.758;5.784;2023-05-07T03:21:09;101574.55;;;14.47;77.75
80627;BME280;69982;51.758;5.784;2023-05-07T03:23:37;101576.64;;;14.48;77.86
80627;BME280;69982;51.758;5.784;2023-05-07T03:26:05;101575.36;;;14.51;77.76
80627;BME280;69982;51.758;5.784;2023-05-07T03:28:32;101574.81;;;14.52;77.99
80627;BME280;69982;51.758;5.784;2023-05-07T03:31:00;101574.79;;;14.54;77.93
80627;BME280;69982;51.758;5.784;2023-05-07T03:33:28;101573.14;;;14.54;77.95
80627;BME280;69982;51.758;5.784;2023-05-07T03:35:56;101573.80;;;14.52;77.69
80627;BME280;69982;51.758;5.784;2023-05-07T03:38:24;101577.45;;;14.50;77.75
80627;BME280;69982;51.758;5.784;2023-05-07T03:40:52;101577.46;;;14.47;77.53
80627;BME280;69982;51.758;5.784;2023-05-07T03:43:19;101573.22;;;14.43;77.69
80627;BME280;69982;51.758;5.784;2023-05-07T03:45:47;101576.48;;;14.41;77.65
80627;BME280;69982;51.758;5.784;2023-05-07T03:48:16;101575.19;;;14.40;77.66
80627;BME280;69982;51.758;5.784;2023-05-07T03:50:44;101572.42;;;14.40;77.89
80627;BME280;69982;51.758;5.784;2023-05-07T03:53:12;101574.45;;;14.41;77.99
80627;BME280;69982;51.758;5.784;2023-05-07T03:55:39;101571.86;;;14.43;78.03
80627;BME280;69982;51.758;5.784;2023-05-07T03:58:07;101570.84;;;14.44;77.86
80627;BME280;69982;51.758;5.784;2023-05-07T04:00:35;101566.39;;;14.43;77.88
80627;BME280;69982;51.758;5.784;2023-05-07T04:03:05;101575.20;;;14.41;78.03
80627;BME280;69982;51.758;5.784;2023-05-07T04:05:34;101572.83;;;14.36;78.15
80627;BME280;69982;51.758;5.784;2023-05-07T04:08:03;101575.67;;;14.34;78.11
80627;BME280;69982;51.758;5.784;2023-05-07T04:10:31;101570.52;;;14.33;78.20
80627;BME280;69982;51.758;5.784;2023-05-07T04:12:59;101572.16;;;14.33;78.23
80627;BME280;69982;51.758;5.784;2023-05-07T04:15:26;101574.61;;;14.33;78.13
80627;BME280;69982;51.758;5.784;2023-05-07T04:17:54;101578.27;;;14.33;78.22
80627;BME280;69982;51.758;5.784;2023-05-07T04:20:22;101581.68;;;14.34;78.21
80627;BME280;69982;51.758;5.784;2023-05-07T04:22:51;101581.85;;;14.34;78.24
80627;BME280;69982;51.758;5.784;2023-05-07T04:25:18;101582.02;;;14.34;78.34
80627;BME280;69982;51.758;5.784;2023-05-07T04:27:46;101584.32;;;14.33;78.40
80627;BME280;69982;51.758;5.784;2023-05-07T04:30:14;101584.96;;;14.32;78.42
80627;BME280;69982;51.758;5.784;2023-05-07T04:32:42;101582.34;;;14.31;78.46
80627;BME280;69982;51.758;5.784;2023-05-07T04:35:11;101584.65;;;14.33;78.49
80627;BME280;69982;51.758;5.784;2023-05-07T04:37:39;101584.59;;;14.34;78.58
80627;BME280;69982;51.758;5.784;2023-05-07T04:40:07;101589.54;;;14.37;78.49
80627;BME280;69982;51.758;5.784;2023-05-07T04:42:35;101586.64;;;14.41;78.47
80627;BME280;69982;51.758;5.784;2023-05-07T04:45:04;101586.04;;;14.45;78.50
80627;BME280;69982;51.758;5.784;2023-05-07T04:47:32;101585.69;;;14.50;78.54
80627;BME280;69982;51.758;5.784;2023-05-07T04:50:01;101585.38;;;14.54;78.32
80627;BME280;69982;51.758;5.784;2023-05-07T04:52:28;101584.17;;;14.57;78.22
80627;BME280;69982;51.758;5.784;2023-05-07T04:54:56;101587.73;;;14.56;78.25
80627;BME280;69982;51.758;5.784;2023-05-07T04:57:24;101590.43;;;14.56;78.39
80627;BME280;69982;51.758;5.784;2023-05-07T04:59:53;101594.21;;;14.60;78.25
80627;BME280;69982;51.758;5.784;2023-05-07T05:02:22;101594.85;;;14.64;78.09
80627;BME280;69982;51.758;5.784;2023-05-07T05:04:50;101597.51;;;14.67;78.04
80627;BME280;69982;51.758;5.784;2023-05-07T05:07:19;101597.12;;;14.72;77.99
80627;BME280;69982;51.758;5.784;2023-05-07T05:09:47;101599.02;;;14.78;77.92
80627;BME280;69982;51.758;5.784;2023-05-07T05:12:15;101605.38;;;14.86;77.89
80627;BME280;69982;51.758;5.784;2023-05-07T05:14:43;101604.03;;;14.95;77.82
80627;BME280;69982;51.758;5.784;2023-05-07T05:17:11;101611.22;;;15.01;77.96
80627;BME280;69982;51.758;5.784;2023-05-07T05:19:38;101617.87;;;15.06;77.93
80627;BME280;69982;51.758;5.784;2023-05-07T05:22:06;101619.60;;;15.12;77.87
80627;BME280;69982;51.758;5.784;2023-05-07T05:24:34;101617.01;;;15.18;77.75
80627;BME280;69982;51.758;5.784;2023-05-07T05:27:01;101614.65;;;15.24;77.84
80627;BME280;69982;51.758;5.784;2023-05-07T05:29:30;101614.35;;;15.30;77.70
80627;BME280;69982;51.758;5.784;2023-05-07T05:32:00;101614.77;;;15.37;77.40
80627;BME280;69982;51.758;5.784;2023-05-07T05:34:28;101616.53;;;15.45;77.28
80627;BME280;69982;51.758;5.784;2023-05-07T05:36:58;101621.92;;;15.57;77.32
80627;BME280;69982;51.758;5.784;2023-05-07T05:39:26;101624.07;;;15.68;77.19
80627;BME280;69982;51.758;5.784;2023-05-07T05:41:54;101628.66;;;15.79;77.21
80627;BME280;69982;51.758;5.784;2023-05-07T05:44:22;101628.36;;;15.88;77.13
80627;BME280;69982;51.758;5.784;2023-05-07T05:46:50;101630.82;;;15.95;77.13
80627;BME280;69982;51.758;5.784;2023-05-07T05:49:18;101636.19;;;16.05;76.97
80627;BME280;69982;51.758;5.784;2023-05-07T05:51:46;101636.23;;;16.12;76.56
80627;BME280;69982;51.758;5.784;2023-05-07T05:54:14;101637.07;;;16.18;76.43
80627;BME280;69982;51.758;5.784;2023-05-07T05:56:42;101639.60;;;16.24;76.30
80627;BME280;69982;51.758;5.784;2023-05-07T05:59:10;101639.00;;;16.27;76.14
80627;BME280;69982;51.758;5.784;2023-05-07T06:01:38;101644.05;;;16.29;75.93
80627;BME280;69982;51.758;5.784;2023-05-07T06:04:06;101644.81;;;16.27;75.61
80627;BME280;69982;51.758;5.784;2023-05-07T06:06:34;101645.88;;;16.23;75.54
80627;BME280;69982;51.758;5.784;2023-05-07T06:09:02;101643.73;;;16.18;75.62
80627;BME280;69982;51.758;5.784;2023-05-07T06:11:31;101641.09;;;16.14;75.71
80627;BME280;69982;51.758;5.784;2023-05-07T06:13:59;101643.08;;;16.13;75.87
80627;BME280;69982;51.758;5.784;2023-05-07T06:16:27;101638.59;;;16.13;75.78
80627;BME280;69982;51.758;5.784;2023-05-07T06:18:55;101642.67;;;16.16;75.78
80627;BME280;69982;51.758;5.784;2023-05-07T06:21:23;101638.75;;;16.18;75.61
80627;BME280;69982;51.758;5.784;2023-05-07T06:23:51;101639.76;;;16.22;75.80
80627;BME280;69982;51.758;5.784;2023-05-07T06:26:19;101643.47;;;16.25;75.76
80627;BME280;69982;51.758;5.784;2023-05-07T06:28:48;101643.02;;;16.29;75.66
80627;BME280;69982;51.758;5.784;2023-05-07T06:31:19;101640.52;;;16.33;75.79
80627;BME280;69982;51.758;5.784;2023-05-07T06:33:51;101645.42;;;16.37;75.90
80627;BME280;69982;51.758;5.784;2023-05-07T06:36:21;101645.50;;;16.40;75.64
80627;BME280;69982;51.758;5.784;2023-05-07T06:38:51;101646.77;;;16.43;75.36
80627;BME280;69982;51.758;5.784;2023-05-07T06:41:19;101646.66;;;16.45;75.48
80627;BME280;69982;51.758;5.784;2023-05-07T06:43:49;101649.67;;;16.49;75.39
80627;BME280;69982;51.758;5.784;2023-05-07T06:46:18;101650.91;;;16.55;75.36
80627;BME280;69982;51.758;5.784;2023-05-07T06:48:47;101651.78;;;16.62;75.33
80627;BME280;69982;51.758;5.784;2023-05-07T06:51:16;101655.27;;;16.66;75.04
80627;BME280;69982;51.758;5.784;2023-05-07T06:53:44;101657.68;;;16.72;74.87
80627;BME280;69982;51.758;5.784;2023-05-07T06:56:13;101659.80;;;16.75;74.83
80627;BME280;69982;51.758;5.784;2023-05-07T06:58:41;101661.19;;;16.77;74.77
80627;BME280;69982;51.758;5.784;2023-05-07T07:01:09;101666.06;;;16.79;74.67
80627;BME280;69982;51.758;5.784;2023-05-07T07:03:37;101667.55;;;16.82;74.74
80627;BME280;69982;51.758;5.784;2023-05-07T07:06:05;101669.09;;;16.83;74.51
80627;BME280;69982;51.758;5.784;2023-05-07T07:08:33;101672.44;;;16.84;74.23
80627;BME280;69982;51.758;5.784;2023-05-07T07:11:02;101670.58;;;16.84;74.15
80627;BME280;69982;51.758;5.784;2023-05-07T07:13:30;101674.29;;;16.88;74.12
80627;BME280;69982;51.758;5.784;2023-05-07T07:15:58;101672.04;;;16.89;73.95
80627;BME280;69982;51.758;5.784;2023-05-07T07:18:26;101678.80;;;16.92;73.92
80627;BME280;69982;51.758;5.784;2023-05-07T07:20:53;101675.15;;;16.97;73.93
80627;BME280;69982;51.758;5.784;2023-05-07T07:23:21;101675.37;;;16.99;73.79
80627;BME280;69982;51.758;5.784;2023-05-07T07:25:49;101675.98;;;17.02;73.96
80627;BME280;69982;51.758;5.784;2023-05-07T07:28:20;101676.38;;;17.04;73.93
80627;BME280;69982;51.758;5.784;2023-05-07T07:30:48;101675.23;;;17.06;73.81
80627;BME280;69982;51.758;5.784;2023-05-07T07:33:17;101675.00;;;17.08;73.46
80627;BME280;69982;51.758;5.784;2023-05-07T07:35:45;101671.48;;;17.10;73.53
80627;BME280;69982;51.758;5.784;2023-05-07T07:38:12;101672.05;;;17.14;73.65
80627;BME280;69982;51.758;5.784;2023-05-07T07:40:40;101674.48;;;17.20;73.27
80627;BME280;69982;51.758;5.784;2023-05-07T07:43:08;101675.64;;;17.21;73.07
80627;BME280;69982;51.758;5.784;2023-05-07T07:45:36;101676.82;;;17.20;73.09
80627;BME280;69982;51.758;5.784;2023-05-07T07:48:04;101682.12;;;17.22;73.11
80627;BME280;69982;51.758;5.784;2023-05-07T07:50:31;101685.56;;;17.23;73.13
80627;BME280;69982;51.758;5.784;2023-05-07T07:53:06;101686.35;;;17.26;72.93
80627;BME280;69982;51.758;5.784;2023-05-07T07:55:38;101688.34;;;17.32;73.14
80627;BME280;69982;51.758;5.784;2023-05-07T07:58:06;101686.48;;;17.41;72.96
80627;BME280;69982;51.758;5.784;2023-05-07T08:00:33;101694.39;;;17.51;72.81
80627;BME280;69982;51.758;5.784;2023-05-07T08:03:01;101695.19;;;17.62;72.48
80627;BME280;69982;51.758;5.784;2023-05-07T08:05:31;101692.67;;;17.75;72.27
80627;BME280;69982;51.758;5.784;2023-05-07T08:07:59;101690.63;;;17.91;72.09
80627;BME280;69982;51.758;5.784;2023-05-07T08:10:27;101688.65;;;18.15;71.92
80627;BME280;69982;51.758;5.784;2023-05-07T08:12:55;101688.27;;;18.38;71.11
80627;BME280;69982;51.758;5.784;2023-05-07T08:15:22;101685.67;;;18.63;70.68
80627;BME280;69982;51.758;5.784;2023-05-07T08:17:51;101688.34;;;18.87;70.00
80627;BME280;69982;51.758;5.784;2023-05-07T08:20:20;101689.91;;;19.10;69.79
80627;BME280;69982;51.758;5.784;2023-05-07T08:22:55;101692.20;;;19.32;69.09
80627;BME280;69982;51.758;5.784;2023-05-07T08:25:24;101690.72;;;19.51;68.70
80627;BME280;69982;51.758;5.784;2023-05-07T08:27:53;101695.98;;;19.68;67.88
80627;BME280;69982;51.758;5.784;2023-05-07T08:30:29;101690.05;;;19.86;67.54
80627;BME280;69982;51.758;5.784;2023-05-07T08:32:58;101689.10;;;20.14;66.92
80627;BME280;69982;51.758;5.784;2023-05-07T08:35:27;101690.14;;;20.38;66.07
80627;BME280;69982;51.758;5.784;2023-05-07T08:37:57;101686.30;;;20.74;65.99
80627;BME280;69982;51.758;5.784;2023-05-07T08:40:26;101689.95;;;21.21;65.40
80627;BME280;69982;51.758;5.784;2023-05-07T08:43:00;101693.55;;;21.63;64.44
80627;BME280;69982;51.758;5.784;2023-05-07T08:45:30;101694.89;;;22.03;63.96
80627;BME280;69982;51.758;5.784;2023-05-07T08:48:14;101692.60;;;22.31;62.56
80627;BME280;69982;51.758;5.784;2023-05-07T08:50:43;101688.05;;;22.43;60.91
80627;BME280;69982;51.758;5.784;2023-05-07T08:53:14;101688.79;;;22.41;61.15
80627;BME280;69982;51.758;5.784;2023-05-07T08:55:45;101692.25;;;22.39;59.96
80627;BME280;69982;51.758;5.784;2023-05-07T08:58:16;101691.54;;;22.44;59.76
80627;BME280;69982;51.758;5.784;2023-05-07T09:00:45;101686.63;;;22.62;60.71
80627;BME280;69982;51.758;5.784;2023-05-07T09:03:14;101685.56;;;22.78;59.14
80627;BME280;69982;51.758;5.784;2023-05-07T09:05:42;101690.71;;;22.96;59.22
80627;BME280;69982;51.758;5.784;2023-05-07T09:08:14;101692.36;;;23.35;58.70
80627;BME280;69982;51.758;5.784;2023-05-07T09:10:44;101690.91;;;23.84;58.43
80627;BME280;69982;51.758;5.784;2023-05-07T09:13:12;101690.73;;;24.12;56.20
80627;BME280;69982;51.758;5.784;2023-05-07T09:15:42;101693.27;;;24.12;55.92
80627;BME280;69982;51.758;5.784;2023-05-07T09:18:12;101697.79;;;24.13;55.77
80627;BME280;69982;51.758;5.784;2023-05-07T09:20:43;101698.79;;;24.20;56.04
80627;BME280;69982;51.758;5.784;2023-05-07T09:23:11;101700.63;;;24.24;54.40
80627;BME280;69982;51.758;5.784;2023-05-07T09:25:40;101704.30;;;24.17;55.24
80627;BME280;69982;51.758;5.784;2023-05-07T09:28:08;101704.64;;;24.17;55.78
80627;BME280;69982;51.758;5.784;2023-05-07T09:30:38;101700.42;;;24.13;55.11
80627;BME280;69982;51.758;5.784;2023-05-07T09:33:07;101702.54;;;24.18;55.81
80627;BME280;69982;51.758;5.784;2023-05-07T09:35:35;101695.69;;;24.26;56.29
80627;BME280;69982;51.758;5.784;2023-05-07T09:38:05;101696.88;;;24.39;55.92
80627;BME280;69982;51.758;5.784;2023-05-07T09:40:33;101695.35;;;24.38;55.18
80627;BME280;69982;51.758;5.784;2023-05-07T09:43:12;101694.63;;;24.38;55.38
80627;BME280;69982;51.758;5.784;2023-05-07T09:45:40;101692.64;;;24.53;54.20
80627;BME280;69982;51.758;5.784;2023-05-07T09:48:10;101694.95;;;24.74;55.05
80627;BME280;69982;51.758;5.784;2023-05-07T09:50:48;101693.42;;;24.85;53.76
80627;BME280;69982;51.758;5.784;2023-05-07T09:53:18;101696.77;;;24.86;53.73
80627;BME280;69982;51.758;5.784;2023-05-07T09:55:46;101695.54;;;24.75;53.55
80627;BME280;69982;51.758;5.784;2023-05-07T09:58:16;101697.41;;;24.72;53.45
80627;BME280;69982;51.758;5.784;2023-05-07T10:00:46;101696.94;;;24.75;54.02
80627;BME280;69982;51.758;5.784;2023-05-07T10:03:14;101696.72;;;24.75;52.95
80627;BME280;69982;51.758;5.784;2023-05-07T10:05:42;101696.73;;;24.75;51.34
80627;BME280;69982;51.758;5.784;2023-05-07T10:08:12;101694.48;;;24.71;51.84
80627;BME280;69982;51.758;5.784;2023-05-07T10:10:40;101697.27;;;24.76;53.34
80627;BME280;69982;51.758;5.784;2023-05-07T10:13:08;101697.73;;;24.76;52.69
80627;BME280;69982;51.758;5.784;2023-05-07T10:15:38;101697.75;;;24.75;53.80
80627;BME280;69982;51.758;5.784;2023-05-07T10:18:07;101694.31;;;24.71;51.95
80627;BME280;69982;51.758;5.784;2023-05-07T10:20:36;101694.61;;;24.69;52.78
80627;BME280;69982;51.758;5.784;2023-05-07T10:23:05;101690.34;;;24.74;53.49
80627;BME280;69982;51.758;5.784;2023-05-07T10:25:33;101693.27;;;24.75;52.86
80627;BME280;69982;51.758;5.784;2023-05-07T10:28:06;101690.00;;;24.76;52.59
80627;BME280;69982;51.758;5.784;2023-05-07T10:33:19;101690.23;;;24.63;52.24
80627;BME280;69982;51.758;5.784;2023-05-07T10:35:47;101692.30;;;24.46;52.18
80627;BME280;69982;51.758;5.784;2023-05-07T10:38:16;101691.50;;;24.35;52.93
80627;BME280;69982;51.758;5.784;2023-05-07T10:40:44;101692.86;;;24.23;53.32
80627;BME280;69982;51.758;5.784;2023-05-07T10:43:14;101690.02;;;24.15;53.58
80627;BME280;69982;51.758;5.784;2023-05-07T10:45:41;101695.73;;;24.03;53.31
80627;BME280;69982;51.758;5.784;2023-05-07T10:50:47;101704.67;;;23.76;54.05
80627;BME280;69982;51.758;5.784;2023-05-07T10:55:51;101707.58;;;23.62;55.08
80627;BME280;69982;51.758;5.784;2023-05-07T10:58:27;101702.41;;;23.54;54.81
80627;BME280;69982;51.758;5.784;2023-05-07T11:01:02;101705.08;;;23.56;54.90
80627;BME280;69982;51.758;5.784;2023-05-07T11:03:30;101700.83;;;23.59;55.70
80627;BME280;69982;51.758;5.784;2023-05-07T11:06:16;101697.58;;;23.63;54.26
80627;BME280;69982;51.758;5.784;2023-05-07T11:08:56;101696.02;;;23.65;53.80
80627;BME280;69982;51.758;5.784;2023-05-07T11:14:45;101691.56;;;23.73;54.68
80627;BME280;69982;51.758;5.784;2023-05-07T11:17:13;101688.47;;;23.68;53.65
80627;BME280;69982;51.758;5.784;2023-05-07T11:19:54;101686.48;;;23.63;53.81
80627;BME280;69982;51.758;5.784;2023-05-07T11:22:36;101686.11;;;23.60;54.03
80627;BME280;69982;51.758;5.784;2023-05-07T11:25:07;101687.31;;;23.63;54.56
80627;BME280;69982;51.758;5.784;2023-05-07T11:27:36;101687.64;;;23.66;54.49
80627;BME280;69982;51.758;5.784;2023-05-07T11:30:05;101689.66;;;23.71;54.82
80627;BME280;69982;51.758;5.784;2023-05-07T11:32:33;101688.64;;;23.76;54.57
80627;BME280;69982;51.758;5.784;2023-05-07T11:35:01;101690.53;;;23.80;54.71
80627;BME280;69982;51.758;5.784;2023-05-07T11:37:28;101693.36;;;23.83;54.10
80627;BME280;69982;51.758;5.784;2023-05-07T11:40:08;101693.98;;;23.82;54.74
80627;BME280;69982;51.758;5.784;2023-05-07T11:42:39;101696.98;;;23.84;54.17
80627;BME280;69982;51.758;5.784;2023-05-07T11:45:09;101691.79;;;23.86;54.01
80627;BME280;69982;51.758;5.784;2023-05-07T11:47:37;101692.67;;;23.89;53.96
80627;BME280;69982;51.758;5.784;2023-05-07T11:50:07;101694.61;;;23.91;53.19
80627;BME280;69982;51.758;5.784;2023-05-07T11:52:37;101693.30;;;23.97;54.29
80627;BME280;69982;51.758;5.784;2023-05-07T11:55:07;101694.73;;;24.05;54.94
80627;BME280;69982;51.758;5.784;2023-05-07T11:57:35;101693.27;;;24.15;54.48
80627;BME280;69982;51.758;5.784;2023-05-07T12:00:04;101692.30;;;24.23;54.13
80627;BME280;69982;51.758;5.784;2023-05-07T12:02:33;101693.84;;;24.31;54.14
80627;BME280;69982;51.758;5.784;2023-05-07T12:05:03;101692.58;;;24.38;53.32
80627;BME280;69982;51.758;5.784;2023-05-07T12:07:33;101689.48;;;24.47;54.20
80627;BME280;69982;51.758;5.784;2023-05-07T12:10:05;101692.80;;;24.59;53.56
80627;BME280;69982;51.758;5.784;2023-05-07T12:12:40;101690.41;;;24.68;52.05
80627;BME280;69982;51.758;5.784;2023-05-07T12:15:15;101694.48;;;24.74;50.14
80627;BME280;69982;51.758;5.784;2023-05-07T14:09:04;101703.09;;;22.42;53.02
80627;BME280;69982;51.758;5.784;2023-05-07T14:11:33;101719.20;;;22.31;53.13
80627;BME280;69982;51.758;5.784;2023-05-07T14:14:02;101719.40;;;22.07;49.47
80627;BME280;69982;51.758;5.784;2023-05-07T14:16:31;101726.44;;;21.69;48.94
80627;BME280;69982;51.758;5.784;2023-05-07T14:19:00;101726.66;;;21.35;49.11
80627;BME280;69982;51.758;5.784;2023-05-07T14:21:28;101724.80;;;21.04;49.34
80627;BME280;69982;51.758;5.784;2023-05-07T14:23:56;101728.43;;;20.83;49.85
80627;BME280;69982;51.758;5.784;2023-05-07T14:26:25;101730.64;;;20.62;50.29
80627;BME280;69982;51.758;5.784;2023-05-07T14:28:55;101727.74;;;20.39;51.47
80627;BME280;69982;51.758;5.784;2023-05-07T14:31:26;101737.08;;;20.13;52.76
80627;BME280;69982;51.758;5.784;2023-05-07T14:33:55;101736.54;;;19.90;53.91
80627;BME280;69982;51.758;5.784;2023-05-07T14:36:25;101740.27;;;19.67;55.04
80627;BME280;69982;51.758;5.784;2023-05-07T14:38:54;101739.52;;;19.47;55.74
80627;BME280;69982;51.758;5.784;2023-05-07T14:41:22;101740.98;;;19.29;56.58
80627;BME280;69982;51.758;5.784;2023-05-07T14:43:50;101745.05;;;19.11;57.69
80627;BME280;69982;51.758;5.784;2023-05-07T14:46:19;101745.01;;;18.95;58.68
80627;BME280;69982;51.758;5.784;2023-05-07T14:48:48;101748.98;;;18.81;59.28
80627;BME280;69982;51.758;5.784;2023-05-07T14:51:16;101751.17;;;18.69;60.12
80627;BME280;69982;51.758;5.784;2023-05-07T14:53:44;101749.09;;;18.57;60.52
80627;BME280;69982;51.758;5.784;2023-05-07T14:56:13;101750.05;;;18.50;61.00
80627;BME280;69982;51.758;5.784;2023-05-07T14:58:42;101754.65;;;18.40;61.44
80627;BME280;69982;51.758;5.784;2023-05-07T15:01:11;101757.96;;;18.29;61.41
80627;BME280;69982;51.758;5.784;2023-05-07T15:03:40;101758.90;;;18.19;62.05